LF7423 weather

Glacier de Talèfre Altiport
Chamonix, Auvergne-Rhône-Alpes, France

Public forecast

Using degrees Celsius for public forecast. Weather courtesy of forecast.io.

Closest aviation weather report (METAR) to Glacier de Talèfre Altiport

Closest report is Aosta Airport, 19.1 nm (35.3 km) ESE. Retrieved 2020/01/26 07:20 UTC (22 minutes ago):

LIMW 260720Z AUTO VRB01KT 9999 NCD M04/M04 Q1022

Closest aviation forecast (TAF) to Glacier de Talèfre Altiport

Closest forecast is Annecy-Haute-Savoie-Mont Blanc Airport, 36.7 nm (67.9 km) W. Retrieved 2020/01/26 09:00 UTC (0 seconds ago):

TAF LFLP 260800Z 2609/2709 VRB02KT 9999 BKN050 TEMPO 2609/2624 4000 -SHRA FEW025TCU BKN030 BECMG 2701/2703 NSC PROB30 TEMPO 2703/2706 2000 BR